Time;durP1;ratioP1;P1;durP2;ratioP2;P2;SDS_P1;SDS_P2;PMS_P1;PMS_P2;Temp;Humidity;BMP_temperature;BMP_pressure;BME280_temperature;BME280_humidity;BME280_pressure;Samples;Min_cycle;Max_cycle;Signal;HPM_P1;HPM_P2
2022/06/28 00:00:54;;;;;;;5.00;3.80;;;20.50;91.90;;;;;;1919907;75;21089;-68
2022/06/28 00:03:24;;;;;;;6.85;4.10;;;20.50;91.90;;;;;;1919998;75;21103;-68
2022/06/28 00:05:53;;;;;;;7.17;3.30;;;20.50;91.90;;;;;;1919905;75;21077;-68
2022/06/28 00:08:23;;;;;;;8.08;3.80;;;20.50;92.20;;;;;;1919921;74;21033;-68
2022/06/28 00:10:52;;;;;;;7.17;3.55;;;20.50;91.90;;;;;;1919730;75;21077;-68
2022/06/28 00:13:22;;;;;;;7.92;4.20;;;20.40;91.80;;;;;;1919842;75;21026;-68
2022/06/28 00:16:06;;;;;;;4.45;3.58;;;20.40;91.80;;;;;;1919799;75;21085;-68
2022/06/28 00:18:37;;;;;;;4.08;3.55;;;20.30;91.90;;;;;;1920071;74;21042;-68
2022/06/28 00:21:07;;;;;;;4.78;3.60;;;20.30;91.90;;;;;;1919602;74;21054;-68
2022/06/28 00:23:42;;;;;;;10.15;3.75;;;20.30;91.90;;;;;;1919917;75;21030;-68
2022/06/28 00:26:11;;;;;;;;;;;20.20;91.90;;;;;;1922726;75;21034;-68
2022/06/28 00:28:41;;;;;;;5.47;3.80;;;20.20;92.10;;;;;;1919876;74;20107;-68
2022/06/28 00:31:11;;;;;;;5.87;4.05;;;20.20;91.90;;;;;;1914261;74;21014;-67
2022/06/28 00:33:41;;;;;;;9.88;4.50;;;20.20;91.90;;;;;;1919864;75;21026;-68
2022/06/28 00:36:10;;;;;;;8.28;4.05;;;20.20;92.00;;;;;;1919741;75;21025;-68
2022/06/28 00:38:39;;;;;;;4.25;3.85;;;20.20;92.00;;;;;;1919939;75;21514;-68
2022/06/28 00:41:09;;;;;;;6.25;3.52;;;20.10;92.00;;;;;;1919867;75;21018;-68
2022/06/28 00:43:38;;;;;;;7.22;4.08;;;20.10;92.00;;;;;;1919770;74;21026;-68
2022/06/28 00:46:09;;;;;;;8.43;4.28;;;20.10;92.00;;;;;;1919886;75;21049;-67
2022/06/28 00:48:39;;;;;;;5.65;3.85;;;20.10;92.10;;;;;;1919847;75;21029;-68
2022/06/28 00:51:09;;;;;;;6.42;4.10;;;20.10;92.10;;;;;;1919707;75;21112;-68
2022/06/28 00:53:39;;;;;;;10.55;4.42;;;20.10;92.10;;;;;;1919765;75;21030;-68
2022/06/28 00:56:08;;;;;;;5.47;4.37;;;20.10;92.10;;;;;;1919698;75;21299;-68
2022/06/28 00:58:38;;;;;;;9.75;4.00;;;20.10;92.10;;;;;;1919833;75;21006;-68
2022/06/28 01:01:07;;;;;;;5.45;4.53;;;20.10;92.10;;;;;;1919832;75;21109;-68
2022/06/28 01:03:37;;;;;;;6.15;4.40;;;20.10;92.20;;;;;;1919898;75;21006;-68
2022/06/28 01:06:07;;;;;;;5.20;4.15;;;20.10;92.10;;;;;;1919723;75;21077;-68
2022/06/28 01:08:36;;;;;;;4.90;4.30;;;20.10;92.20;;;;;;1919747;75;21033;-67
2022/06/28 01:11:22;;;;;;;4.53;3.72;;;20.10;92.10;;;;;;1919678;75;21025;-68
2022/06/28 01:13:54;;;;;;;4.40;3.90;;;20.20;92.10;;;;;;1919881;75;21100;-68
2022/06/28 01:16:27;;;;;;;11.40;4.78;;;20.20;92.10;;;;;;1919971;75;21077;-68
2022/06/28 01:18:58;;;;;;;6.30;4.17;;;20.30;92.20;;;;;;1919490;75;21086;-67
2022/06/28 01:21:30;;;;;;;4.67;4.10;;;20.30;92.10;;;;;;1919728;75;21041;-68
2022/06/28 01:23:59;;;;;;;8.18;4.35;;;20.40;92.10;;;;;;1920061;75;21099;-68
2022/06/28 01:26:48;;;;;;;5.70;4.15;;;20.50;92.10;;;;;;1919841;75;21086;-67
2022/06/28 01:29:18;;;;;;;6.75;4.40;;;20.50;92.00;;;;;;1925420;74;21037;-68
2022/06/28 01:31:49;;;;;;;10.50;4.87;;;20.50;92.00;;;;;;1913840;74;21091;-68
2022/06/28 01:34:19;;;;;;;5.80;4.30;;;20.50;91.90;;;;;;1926400;74;21006;-68
2022/06/28 01:36:49;;;;;;;5.97;4.50;;;20.50;91.90;;;;;;1926325;74;21005;-67
2022/06/28 01:39:19;;;;;;;7.55;4.55;;;20.50;91.90;;;;;;1926359;74;21006;-68
2022/06/28 01:41:50;;;;;;;4.97;4.10;;;20.50;92.00;;;;;;1926378;74;21050;-68
2022/06/28 01:44:22;;;;;;;7.53;4.25;;;20.50;91.90;;;;;;1925787;74;21619;-68
2022/06/28 01:47:01;;;;;;;7.62;4.20;;;20.50;92.00;;;;;;1925482;74;21135;-68
2022/06/28 01:49:32;;;;;;;8.20;4.03;;;20.50;91.90;;;;;;1872894;75;21021;-68
2022/06/28 01:52:21;;;;;;;9.05;4.30;;;20.50;91.90;;;;;;1926278;74;21103;-68
2022/06/28 01:54:51;;;;;;;8.63;4.25;;;20.50;91.80;;;;;;1883464;76;21092;-68
2022/06/28 01:57:21;;;;;;;6.03;4.20;;;20.50;91.90;;;;;;1889399;76;21001;-68
2022/06/28 01:59:52;;;;;;;6.67;4.28;;;20.50;91.90;;;;;;1887939;76;21032;-68
2022/06/28 02:02:25;;;;;;;6.47;4.15;;;20.50;91.90;;;;;;1884471;76;21122;-68
2022/06/28 02:05:13;;;;;;;6.05;4.58;;;20.50;91.80;;;;;;1889307;76;21029;-68
2022/06/28 02:07:49;;;;;;;9.65;4.87;;;20.50;91.80;;;;;;1889284;76;21041;-68
2022/06/28 02:10:20;;;;;;;11.83;4.60;;;20.60;91.90;;;;;;1889183;76;21001;-68
2022/06/28 02:12:49;;;;;;;5.78;5.00;;;20.60;91.90;;;;;;1889264;76;21098;-68
2022/06/28 02:15:19;;;;;;;9.93;4.90;;;20.50;91.90;;;;;;1889161;76;21009;-68
2022/06/28 02:17:49;;;;;;;10.63;4.78;;;20.50;91.90;;;;;;1889291;76;21002;-68
2022/06/28 02:20:38;;;;;;;6.72;4.12;;;20.60;91.90;;;;;;1889240;76;21076;-68
2022/06/28 02:23:08;;;;;;;7.62;4.20;;;20.50;91.90;;;;;;1875139;76;21042;-68
2022/06/28 02:25:37;;;;;;;6.40;4.95;;;20.50;91.90;;;;;;1875021;76;21107;-68
2022/06/28 02:28:07;;;;;;;5.87;3.90;;;20.60;91.90;;;;;;1875043;75;21057;-68
2022/06/28 02:30:36;;;;;;;12.95;5.35;;;20.60;91.90;;;;;;1875013;75;21030;-68
2022/06/28 02:33:06;;;;;;;9.35;4.30;;;20.60;91.90;;;;;;1874964;75;21125;-68
2022/06/28 02:41:30;;;;;;;6.87;4.30;;;20.70;91.90;;;;;;1894861;75;21047;-68
2022/06/28 02:44:00;;;;;;;8.13;4.35;;;20.70;91.90;;;;;;1894773;75;21094;-68
2022/06/28 02:46:29;;;;;;;12.82;4.53;;;20.80;91.90;;;;;;1894844;76;21031;-67
2022/06/28 02:48:59;;;;;;;4.92;4.28;;;20.80;91.90;;;;;;1894909;75;21105;-68
2022/06/28 02:51:28;;;;;;;7.40;4.92;;;20.80;91.90;;;;;;1894718;75;21023;-67
2022/06/28 02:53:57;;;;;;;6.90;4.55;;;20.70;91.90;;;;;;1894821;75;21101;-68
2022/06/28 02:56:27;;;;;;;4.75;4.35;;;20.80;92.00;;;;;;1894821;76;21078;-68
2022/06/28 02:58:56;;;;;;;9.65;4.53;;;20.80;92.00;;;;;;1894722;75;21085;-68
2022/06/28 03:01:26;;;;;;;4.78;4.00;;;20.80;91.90;;;;;;1894682;75;21157;-68
2022/06/28 03:03:55;;;;;;;6.78;3.98;;;20.80;91.90;;;;;;1894629;76;21106;-67
2022/06/28 03:06:25;;;;;;;8.58;5.58;;;20.80;92.00;;;;;;1894802;75;21055;-67
2022/06/28 03:08:55;;;;;;;8.55;4.65;;;20.80;92.00;;;;;;1894759;75;21056;-67
2022/06/28 03:11:24;;;;;;;7.40;4.17;;;20.80;92.00;;;;;;1894666;75;21097;-68
2022/06/28 03:13:54;;;;;;;5.92;4.65;;;20.80;92.00;;;;;;1894720;76;21054;-67
2022/06/28 03:16:23;;;;;;;6.08;4.62;;;20.70;92.10;;;;;;1894674;75;21027;-68
2022/06/28 03:18:53;;;;;;;10.43;4.65;;;20.80;92.10;;;;;;1894799;76;21023;-67
2022/06/28 03:21:22;;;;;;;5.35;4.78;;;20.80;92.00;;;;;;1894728;75;21035;-68
2022/06/28 03:23:51;;;;;;;8.83;4.50;;;20.80;92.10;;;;;;1894642;75;21497;-68
2022/06/28 03:26:21;;;;;;;18.27;4.70;;;20.80;92.10;;;;;;1894630;75;21081;-68
2022/06/28 03:28:52;;;;;;;7.00;4.83;;;20.70;92.00;;;;;;1894808;76;21104;-68
2022/06/28 03:31:21;;;;;;;7.65;4.35;;;20.70;92.00;;;;;;1894800;75;21027;-67
2022/06/28 03:33:51;;;;;;;8.68;4.10;;;20.60;91.90;;;;;;1894772;75;21016;-68
2022/06/28 03:36:20;;;;;;;8.60;4.50;;;20.60;92.00;;;;;;1894658;75;21505;-68
2022/06/28 03:38:50;;;;;;;5.97;4.45;;;20.60;92.00;;;;;;1894760;75;21007;-68
2022/06/28 03:41:23;;;;;;;7.53;3.98;;;20.60;92.00;;;;;;1881203;74;21075;-68
2022/06/28 03:43:55;;;;;;;10.85;6.80;;;20.60;92.10;;;;;;1879880;74;21063;-68
2022/06/28 03:46:24;;;;;;;8.65;4.83;;;20.60;92.10;;;;;;1879364;76;21109;-68
2022/06/28 03:49:11;;;;;;;5.83;4.15;;;20.60;92.00;;;;;;1879206;76;21073;-68
2022/06/28 03:51:45;;;;;;;6.83;3.80;;;20.70;92.00;;;;;;1877378;75;21051;-68
2022/06/28 03:54:29;;;;;;;4.73;4.03;;;20.70;91.90;;;;;;1879490;74;21112;-68
2022/06/28 03:57:19;;;;;;;8.00;4.03;;;20.80;91.80;;;;;;1880275;74;21149;-68
2022/06/28 03:59:48;;;;;;;7.30;4.40;;;20.80;91.80;;;;;;1879235;75;21122;-68
2022/06/28 04:02:18;;;;;;;7.25;4.87;;;20.90;91.80;;;;;;1879325;75;21101;-68
2022/06/28 04:04:47;;;;;;;5.50;3.65;;;20.90;91.70;;;;;;1879311;75;21056;-68
2022/06/28 04:07:17;;;;;;;4.60;4.20;;;20.90;91.70;;;;;;1879376;76;21438;-68
2022/06/28 04:09:48;;;;;;;7.08;4.17;;;20.90;91.70;;;;;;1879399;74;21047;-68
2022/06/28 04:12:17;;;;;;;9.98;4.28;;;20.90;91.70;;;;;;1879273;76;21075;-68
2022/06/28 04:14:47;;;;;;;8.83;4.10;;;20.90;91.70;;;;;;1879168;76;21040;-68
2022/06/28 04:17:17;;;;;;;8.25;3.92;;;21.00;91.70;;;;;;1879230;75;21031;-68
2022/06/28 04:20:05;;;;;;;6.62;4.47;;;21.00;91.60;;;;;;1879086;75;21491;-68
2022/06/28 04:22:35;;;;;;;10.82;4.22;;;21.00;91.50;;;;;;1879593;74;21107;-68
2022/06/28 04:25:05;;;;;;;14.90;9.83;;;21.00;91.40;;;;;;1879082;75;21024;-68
2022/06/28 04:27:36;;;;;;;10.75;5.80;;;21.10;91.30;;;;;;1880060;74;21059;-68
2022/06/28 04:30:06;;;;;;;6.50;3.87;;;21.10;91.30;;;;;;1879157;76;21032;-68
2022/06/28 04:32:38;;;;;;;10.43;4.10;;;21.10;91.40;;;;;;1879922;74;21039;-68
2022/06/28 04:35:08;;;;;;;6.85;3.65;;;21.20;91.30;;;;;;1879162;76;21086;-69
2022/06/28 04:37:38;;;;;;;6.10;3.85;;;21.30;91.10;;;;;;1879347;76;21020;-68
2022/06/28 04:40:10;;;;;;;9.10;3.75;;;21.40;91.10;;;;;;1880295;74;21486;-68
2022/06/28 04:42:41;;;;;;;5.15;3.72;;;21.50;90.90;;;;;;1880155;74;21043;-68
2022/06/28 04:45:12;;;;;;;5.15;3.65;;;21.60;90.60;;;;;;1879266;75;21114;-68
2022/06/28 04:47:43;;;;;;;13.05;6.17;;;21.60;90.70;;;;;;1880602;73;22403;-68
2022/06/28 04:50:12;;;;;;;7.17;3.60;;;21.70;90.60;;;;;;1879305;76;21141;-68
2022/06/28 04:52:42;;;;;;;14.15;4.40;;;21.70;90.30;;;;;;1879204;76;21028;-68
2022/06/28 04:55:11;;;;;;;5.15;3.75;;;21.70;90.20;;;;;;1879390;76;21024;-68
2022/06/28 04:57:45;;;;;;;6.00;3.47;;;21.70;90.10;;;;;;1879713;74;21020;-68
2022/06/28 05:00:17;;;;;;;6.62;3.08;;;21.80;90.30;;;;;;1879549;74;21062;-68
2022/06/28 05:02:48;;;;;;;8.75;4.22;;;21.90;90.10;;;;;;1879986;74;21068;-68
2022/06/28 05:05:25;;;;;;;7.47;3.40;;;22.00;89.40;;;;;;1881009;74;21141;-68
2022/06/28 05:07:54;;;;;;;9.25;3.92;;;22.10;89.10;;;;;;1879397;76;21031;-68
2022/06/28 05:10:25;;;;;;;7.78;4.08;;;22.10;88.50;;;;;;1879504;74;21036;-68
2022/06/28 05:12:56;;;;;;;7.45;3.45;;;22.10;88.40;;;;;;1879895;75;21556;-68
2022/06/28 05:15:27;;;;;;;9.25;3.10;;;22.20;88.80;;;;;;1879397;76;21315;-68
2022/06/28 05:18:03;;;;;;;6.87;4.08;;;22.30;88.60;;;;;;1875224;75;21157;-68
2022/06/28 05:20:33;;;;;;;7.33;3.72;;;22.40;87.80;;;;;;1879307;76;21086;-68
2022/06/28 05:23:02;;;;;;;4.67;2.70;;;22.40;87.50;;;;;;1879331;75;21008;-68
2022/06/28 05:25:39;;;;;;;7.85;3.55;;;22.40;87.10;;;;;;1881651;75;21072;-68
2022/06/28 05:28:10;;;;;;;7.75;3.60;;;22.40;87.00;;;;;;1879177;76;21114;-68
2022/06/28 05:30:39;;;;;;;4.08;3.55;;;22.30;87.10;;;;;;1879244;76;21036;-68
2022/06/28 05:33:09;;;;;;;6.58;3.22;;;22.30;87.40;;;;;;1879418;76;21034;-68
2022/06/28 05:35:38;;;;;;;10.00;3.40;;;22.40;87.70;;;;;;1879370;76;21138;-67
2022/06/28 05:38:08;;;;;;;4.45;2.60;;;22.40;87.30;;;;;;1879365;76;21028;-67
2022/06/28 05:40:37;;;;;;;8.73;4.17;;;22.50;86.40;;;;;;1879217;76;21125;-65
2022/06/28 05:43:07;;;;;;;9.58;3.47;;;22.60;85.90;;;;;;1879370;75;21161;-66
2022/06/28 05:45:36;;;;;;;11.70;3.33;;;22.60;86.00;;;;;;1879295;76;21004;-67
2022/06/28 05:48:06;;;;;;;10.78;5.28;;;22.70;86.00;;;;;;1879244;75;21024;-66
2022/06/28 05:50:36;;;;;;;4.83;3.10;;;22.80;86.20;;;;;;1879082;75;21024;-66
2022/06/28 05:53:05;;;;;;;8.45;3.22;;;22.90;86.20;;;;;;1879415;75;21000;-66
2022/06/28 05:55:56;;;;;;;6.80;3.15;;;23.00;85.70;;;;;;1879336;76;21032;-66
2022/06/28 05:58:25;;;;;;;5.90;3.47;;;23.10;85.20;;;;;;1784367;80;21126;-66
2022/06/28 06:00:55;;;;;;;5.42;3.40;;;23.10;84.60;;;;;;1820623;78;21117;-65
2022/06/28 06:03:24;;;;;;;5.25;3.47;;;23.20;84.30;;;;;;1820560;78;21047;-66
2022/06/28 06:05:55;;;;;;;8.53;3.05;;;23.20;84.10;;;;;;1820591;78;21055;-66
2022/06/28 06:08:25;;;;;;;6.80;3.52;;;23.20;84.30;;;;;;1820645;78;21164;-66
2022/06/28 06:10:54;;;;;;;4.60;4.00;;;23.30;84.10;;;;;;1820652;79;21055;-66
2022/06/28 06:13:24;;;;;;;5.72;3.33;;;23.30;84.10;;;;;;1820701;78;21117;-66
2022/06/28 06:15:53;;;;;;;11.80;3.70;;;23.40;83.90;;;;;;1788879;79;21121;-66
2022/06/28 06:18:23;;;;;;;6.47;2.87;;;23.40;83.10;;;;;;1820689;77;21048;-66
2022/06/28 06:20:54;;;;;;;8.15;4.12;;;23.40;82.00;;;;;;1820743;79;21509;-66
2022/06/28 06:23:24;;;;;;;6.85;3.33;;;23.40;82.90;;;;;;1820760;79;21083;-66
2022/06/28 06:26:04;;;;;;;12.82;3.40;;;23.50;83.10;;;;;;1820812;79;21031;-66
2022/06/28 06:28:35;;;;;;;8.93;3.35;;;23.50;83.00;;;;;;1820827;78;21055;-66
2022/06/28 06:31:07;;;;;;;11.03;3.98;;;23.60;83.10;;;;;;1820974;79;21083;-66
2022/06/28 06:33:40;;;;;;;4.65;3.50;;;23.70;82.70;;;;;;1801483;78;21064;-66
2022/06/28 06:36:14;;;;;;;8.05;4.10;;;23.80;82.30;;;;;;1818263;78;21035;-66
2022/06/28 06:38:44;;;;;;;7.92;4.37;;;23.90;82.70;;;;;;1820780;78;21118;-66
2022/06/28 06:41:14;;;;;;;9.08;3.83;;;23.90;82.40;;;;;;1820745;79;21071;-66
2022/06/28 06:43:44;;;;;;;10.95;3.50;;;23.90;81.10;;;;;;1820783;78;21135;-66
2022/06/28 06:46:17;;;;;;;11.78;3.90;;;23.80;81.20;;;;;;1820777;79;21055;-67
2022/06/28 06:48:46;;;;;;;11.83;4.80;;;23.80;81.10;;;;;;1820758;78;21059;-67
2022/06/28 06:51:16;;;;;;;8.83;3.37;;;23.90;81.60;;;;;;1820693;79;21067;-67
2022/06/28 06:53:45;;;;;;;11.12;4.15;;;24.00;82.00;;;;;;1820717;78;21067;-67
2022/06/28 06:56:15;;;;;;;12.13;3.85;;;24.20;81.20;;;;;;1820707;78;21117;-67
2022/06/28 06:58:45;;;;;;;5.35;3.62;;;24.30;81.10;;;;;;1808830;79;21129;-67
2022/06/28 07:01:15;;;;;;;7.28;3.40;;;24.40;80.10;;;;;;1808719;79;21042;-67
2022/06/28 07:03:45;;;;;;;10.15;3.58;;;24.40;80.30;;;;;;1808852;79;21532;-67
2022/06/28 07:06:15;;;;;;;5.83;3.30;;;24.50;79.70;;;;;;1808661;79;21096;-66
2022/06/28 07:08:44;;;;;;;11.70;3.65;;;24.50;79.70;;;;;;1808784;78;21046;-67
2022/06/28 07:11:14;;;;;;;10.95;5.28;;;24.60;79.80;;;;;;1808568;79;21038;-67
2022/06/28 07:13:44;;;;;;;13.78;3.95;;;24.70;79.40;;;;;;1808816;79;21023;-67
2022/06/28 07:16:14;;;;;;;6.17;3.95;;;24.70;79.50;;;;;;1808723;79;21128;-67
2022/06/28 07:18:43;;;;;;;8.08;3.05;;;24.80;80.10;;;;;;1808827;79;21039;-68
2022/06/28 07:21:13;;;;;;;7.05;3.87;;;24.80;78.50;;;;;;1808708;79;21050;-67
2022/06/28 07:23:43;;;;;;;10.70;4.85;;;24.70;78.60;;;;;;1808683;79;21147;-67
2022/06/28 07:29:03;;;;;;;9.23;3.67;;;24.60;79.70;;;;;;1841655;78;21042;-67
2022/06/28 07:31:33;;;;;;;10.88;3.92;;;24.80;79.10;;;;;;1888771;76;21041;-66
2022/06/28 07:34:04;;;;;;;9.90;3.30;;;24.80;78.80;;;;;;1879642;76;21437;-67
2022/06/28 07:36:33;;;;;;;5.80;3.55;;;24.80;79.40;;;;;;1879572;76;21073;-67
2022/06/28 07:39:03;;;;;;;8.23;3.42;;;24.80;78.70;;;;;;1879655;76;21014;-67
2022/06/28 07:41:34;;;;;;;6.03;3.30;;;24.90;78.40;;;;;;1879586;76;21081;-67
2022/06/28 07:44:11;;;;;;;6.05;3.52;;;25.00;78.10;;;;;;1879544;76;21062;-67
2022/06/28 07:46:41;;;;;;;6.20;3.47;;;25.10;77.80;;;;;;1879633;76;21518;-67
2022/06/28 07:49:10;;;;;;;7.28;3.27;;;25.10;77.90;;;;;;1879479;76;21006;-66
2022/06/28 07:54:28;;;;;;;5.62;3.62;;;25.40;76.90;;;;;;1879520;76;21111;-67
2022/06/28 07:57:02;;;;;;;12.10;4.30;;;25.50;75.60;;;;;;1879666;75;21065;-66
2022/06/28 07:59:31;;;;;;;10.15;3.22;;;25.50;75.80;;;;;;1879570;76;21077;-67
2022/06/28 08:02:02;;;;;;;10.48;4.55;;;25.50;74.80;;;;;;1879750;76;21091;-66
2022/06/28 08:04:33;;;;;;;9.83;3.87;;;25.50;74.60;;;;;;1879023;76;21068;-66
2022/06/28 08:07:03;;;;;;;10.23;3.45;;;25.50;74.70;;;;;;1879627;76;21038;-66
2022/06/28 08:09:32;;;;;;;11.88;3.83;;;25.50;75.00;;;;;;1879581;76;21107;-66
2022/06/28 08:12:02;;;;;;;7.08;3.85;;;25.50;74.40;;;;;;1879526;76;21033;-66
2022/06/28 08:14:32;;;;;;;6.55;2.87;;;25.50;74.10;;;;;;1879510;76;21081;-66
2022/06/28 08:17:03;;;;;;;18.35;3.20;;;25.60;73.20;;;;;;1879603;76;21120;-66
2022/06/28 08:19:34;;;;;;;3.90;3.12;;;25.70;73.00;;;;;;1879444;76;21025;-65
2022/06/28 08:22:04;;;;;;;12.23;4.30;;;25.70;72.70;;;;;;1879482;76;21037;-66
2022/06/28 08:24:34;;;;;;;6.70;3.08;;;25.70;72.80;;;;;;1879573;76;21009;-66
2022/06/28 08:27:04;;;;;;;8.08;3.00;;;25.80;71.90;;;;;;1879590;76;21033;-66
2022/06/28 08:29:34;;;;;;;5.20;3.55;;;25.80;72.00;;;;;;1882402;76;21103;-66
2022/06/28 08:34:54;;;;;;;6.08;2.90;;;26.00;72.50;;;;;;1882616;76;21047;-66
2022/06/28 08:37:24;;;;;;;6.62;3.92;;;26.10;71.50;;;;;;1882615;76;21555;-66
2022/06/28 08:39:53;;;;;;;6.83;3.65;;;26.10;71.00;;;;;;1882459;76;21035;-66
2022/06/28 08:42:25;;;;;;;14.63;6.55;;;26.10;71.60;;;;;;1882631;76;21027;-66
2022/06/28 08:44:56;;;;;;;4.03;2.70;;;26.10;70.80;;;;;;1882616;76;21174;-67
2022/06/28 08:47:27;;;;;;;8.43;2.98;;;26.20;71.10;;;;;;1873527;76;21055;-66
2022/06/28 08:49:59;;;;;;;7.00;3.33;;;26.10;70.40;;;;;;1873588;76;21031;-67
2022/06/28 08:52:30;;;;;;;4.28;2.60;;;26.00;70.00;;;;;;1873826;76;21086;-67
2022/06/28 08:55:01;;;;;;;7.33;2.67;;;26.00;70.20;;;;;;1873800;76;21039;-66
2022/06/28 08:57:32;;;;;;;6.42;3.00;;;26.00;70.10;;;;;;1873722;76;21027;-66
2022/06/28 09:00:02;;;;;;;7.30;3.22;;;26.00;69.70;;;;;;1873705;76;21105;-66
2022/06/28 09:02:32;;;;;;;5.12;2.92;;;26.00;69.60;;;;;;1873683;76;21035;-66
2022/06/28 09:05:01;;;;;;;4.62;2.85;;;26.10;70.20;;;;;;1873769;76;21105;-66
2022/06/28 09:07:31;;;;;;;3.47;2.50;;;26.20;69.60;;;;;;1873693;76;21043;-67
2022/06/28 09:10:01;;;;;;;9.28;3.52;;;26.20;70.00;;;;;;1873588;76;21039;-67
2022/06/28 09:12:33;;;;;;;6.65;3.75;;;26.30;69.20;;;;;;1873733;76;21146;-66
2022/06/28 09:15:05;;;;;;;5.05;3.17;;;26.40;68.70;;;;;;1873716;76;21097;-66
2022/06/28 09:17:36;;;;;;;5.47;3.20;;;26.50;69.50;;;;;;1873867;76;21091;-66
2022/06/28 09:20:07;;;;;;;6.33;3.10;;;26.60;69.10;;;;;;1873689;76;21035;-66
2022/06/28 09:22:43;;;;;;;11.93;3.22;;;26.60;69.00;;;;;;1873839;76;21547;-66
2022/06/28 09:25:26;;;;;;;6.22;2.62;;;26.80;68.60;;;;;;1873626;76;21044;-67
2022/06/28 09:28:01;;;;;;;10.08;2.98;;;26.90;69.20;;;;;;1873938;76;21047;-64
2022/06/28 09:30:32;;;;;;;3.30;3.00;;;27.00;67.50;;;;;;1873639;76;21035;-63
2022/06/28 09:33:03;;;;;;;6.55;3.52;;;27.10;67.30;;;;;;1873415;76;21035;-63
2022/06/28 09:35:33;;;;;;;5.10;2.70;;;27.10;68.00;;;;;;1870295;77;21049;-63
2022/06/28 09:38:02;;;;;;;7.47;2.92;;;27.10;67.70;;;;;;1870354;77;21069;-63
2022/06/28 09:40:32;;;;;;;5.40;2.70;;;27.20;66.70;;;;;;1870344;77;21042;-63
2022/06/28 09:43:12;;;;;;;9.30;3.37;;;27.20;66.30;;;;;;1870325;77;21111;-63
2022/06/28 09:45:43;;;;;;;4.97;2.55;;;27.20;66.60;;;;;;1870272;76;21128;-63
2022/06/28 09:48:19;;;;;;;9.40;3.40;;;27.30;65.20;;;;;;1870258;77;21010;-63
2022/06/28 09:50:49;;;;;;;5.53;3.02;;;27.30;65.90;;;;;;1870180;77;21092;-64
2022/06/28 09:53:20;;;;;;;10.40;2.98;;;27.30;65.70;;;;;;1870284;77;21154;-64
2022/06/28 09:55:51;;;;;;;4.65;2.50;;;27.40;65.30;;;;;;1870469;77;21099;-64
2022/06/28 09:58:22;;;;;;;5.28;3.45;;;27.40;64.60;;;;;;1870385;77;21460;-64
2022/06/28 10:00:51;;;;;;;11.88;3.05;;;27.50;64.50;;;;;;1870275;77;21005;-64
2022/06/28 10:03:21;;;;;;;13.93;3.27;;;27.50;64.90;;;;;;1870316;77;21123;-64
2022/06/28 10:05:51;;;;;;;7.85;2.62;;;27.50;64.30;;;;;;1870376;76;21034;-64
2022/06/28 10:08:21;;;;;;;6.12;2.52;;;27.40;64.40;;;;;;1870279;77;21034;-64
2022/06/28 10:10:52;;;;;;;7.05;2.85;;;27.40;64.20;;;;;;1870270;77;21061;-64
2022/06/28 10:16:37;;;;;;;7.03;2.60;;;27.50;62.60;;;;;;1870449;77;21151;-64
2022/06/28 10:19:08;;;;;;;4.50;2.17;;;27.60;62.40;;;;;;1870320;76;21034;-64
2022/06/28 10:21:45;;;;;;;4.25;2.60;;;27.50;62.00;;;;;;1870421;77;21042;-64
2022/06/28 10:24:15;;;;;;;3.87;2.37;;;27.50;62.80;;;;;;1870317;77;21034;-64
2022/06/28 10:27:12;;;;;;;8.98;3.20;;;27.60;63.30;;;;;;1870413;77;21034;-64
2022/06/28 10:30:08;;;;;;;10.60;2.75;;;27.70;63.40;;;;;;1870216;77;21081;-64
2022/06/28 10:33:03;;;;;;;7.87;2.87;;;27.80;63.10;;;;;;1869649;76;21041;-64
2022/06/28 10:35:36;;;;;;;8.73;3.58;;;27.90;62.20;;;;;;1873335;76;21049;-64
2022/06/28 10:38:12;;;;;;;5.90;3.17;;;28.00;62.10;;;;;;1873561;76;21138;-64
2022/06/28 10:40:50;;;;;;;9.68;2.52;;;28.10;61.80;;;;;;1873525;76;21096;-64
2022/06/28 10:43:31;;;;;;;9.65;3.27;;;28.10;61.30;;;;;;1873709;76;21042;-64
2022/06/28 10:46:06;;;;;;;9.05;3.90;;;28.10;61.40;;;;;;1872375;76;21495;-64
2022/06/28 10:48:53;;;;;;;5.40;2.60;;;28.00;61.10;;;;;;1873674;76;21034;-64
2022/06/28 10:51:22;;;;;;;6.72;2.83;;;28.10;60.90;;;;;;1868946;76;21050;-64
2022/06/28 10:54:06;;;;;;;5.40;3.05;;;28.10;61.00;;;;;;1873762;76;21037;-64
2022/06/28 10:56:32;;;;;;;5.28;2.25;;;28.10;61.20;;;;;;1871875;76;21062;-64
2022/06/28 10:59:04;;;;;;;9.30;3.37;;;28.10;59.70;;;;;;1873501;76;21038;-64
2022/06/28 11:01:44;;;;;;;10.13;3.30;;;28.10;60.30;;;;;;1873656;76;21041;-64
2022/06/28 11:04:25;;;;;;;9.63;3.37;;;28.10;60.20;;;;;;1873609;76;21537;-64
2022/06/28 11:06:59;;;;;;;6.45;2.83;;;28.10;59.90;;;;;;1873515;76;21002;-64
2022/06/28 11:09:40;;;;;;;9.05;2.83;;;28.20;60.20;;;;;;1873663;76;21143;-64
2022/06/28 11:12:26;;;;;;;6.12;2.92;;;28.20;60.20;;;;;;1873010;76;21112;-64
2022/06/28 11:14:54;;;;;;;8.40;2.50;;;28.20;59.50;;;;;;1872252;76;21046;-64
2022/06/28 11:17:26;;;;;;;7.20;2.20;;;28.30;59.50;;;;;;1873838;76;21037;-64
2022/06/28 11:20:00;;;;;;;6.10;2.05;;;28.30;59.10;;;;;;1873734;76;21476;-64
2022/06/28 11:22:39;;;;;;;7.17;2.60;;;28.20;59.00;;;;;;1873501;76;21111;-64
2022/06/28 11:25:11;;;;;;;7.50;2.42;;;28.20;59.30;;;;;;1868335;76;21167;-64
2022/06/28 11:27:49;;;;;;;7.33;2.80;;;28.20;59.20;;;;;;1873643;76;21038;-65
2022/06/28 11:30:18;;;;;;;11.20;3.00;;;28.20;59.30;;;;;;1873658;76;21029;-64
2022/06/28 11:32:50;;;;;;;5.72;2.62;;;28.20;59.10;;;;;;1873845;76;21028;-64
2022/06/28 11:35:23;;;;;;;9.03;2.52;;;28.20;59.40;;;;;;1873616;75;21101;-64
2022/06/28 11:37:54;;;;;;;4.78;2.50;;;28.10;59.60;;;;;;1873759;76;21037;-64
2022/06/28 11:40:26;;;;;;;6.03;3.10;;;28.00;59.50;;;;;;1873747;76;21104;-64
2022/06/28 11:43:07;;;;;;;7.05;3.20;;;28.00;59.50;;;;;;1873175;76;21054;-64
2022/06/28 11:45:39;;;;;;;7.33;2.42;;;28.00;60.00;;;;;;1869428;76;21127;-64
2022/06/28 11:48:13;;;;;;;6.45;2.67;;;27.90;60.00;;;;;;1873606;76;21017;-64
2022/06/28 11:51:00;;;;;;;12.55;3.08;;;28.00;60.60;;;;;;1873405;76;22374;-64
2022/06/28 11:53:30;;;;;;;5.55;2.20;;;28.00;60.20;;;;;;1873576;76;21089;-64
2022/06/28 11:56:00;;;;;;;4.22;2.17;;;28.00;59.60;;;;;;1873523;76;21067;-64
2022/06/28 11:58:31;;;;;;;5.60;3.02;;;27.90;60.20;;;;;;1873466;76;21154;-64
2022/06/28 12:01:16;;;;;;;5.87;2.12;;;27.90;60.00;;;;;;1873725;76;21057;-64
2022/06/28 12:03:48;;;;;;;6.12;2.20;;;27.90;60.30;;;;;;1874017;76;21018;-65
2022/06/28 12:06:29;;;;;;;5.00;1.95;;;27.90;60.60;;;;;;1873812;76;21030;-63
2022/06/28 12:09:06;;;;;;;2.10;1.90;;;27.90;61.20;;;;;;1873732;76;21152;-64
2022/06/28 12:11:47;;;;;;;3.90;2.02;;;27.80;61.70;;;;;;1873693;76;21449;-64
2022/06/28 12:14:18;;;;;;;3.42;2.45;;;27.60;62.50;;;;;;1873757;76;20998;-64
2022/06/28 12:17:00;;;;;;;5.10;2.27;;;27.50;63.00;;;;;;1873746;76;21058;-64
2022/06/28 12:19:34;;;;;;;4.22;1.70;;;27.40;63.30;;;;;;1873757;76;21080;-64
2022/06/28 12:22:11;;;;;;;2.62;1.85;;;27.20;62.80;;;;;;1873697;76;21041;-63
2022/06/28 12:24:53;;;;;;;3.25;1.47;;;27.00;62.90;;;;;;1873708;76;21104;-65
2022/06/28 12:27:34;;;;;;;4.50;2.10;;;26.80;63.50;;;;;;1873755;76;21473;-65
2022/06/28 12:30:08;;;;;;;5.10;2.30;;;26.70;63.80;;;;;;1873789;76;21046;-65
2022/06/28 12:32:37;;;;;;;5.72;1.90;;;26.60;64.50;;;;;;1873734;76;21037;-65
2022/06/28 12:35:09;;;;;;;9.85;1.90;;;26.50;64.70;;;;;;1872818;75;21156;-65
2022/06/28 12:37:39;;;;;;;4.47;2.30;;;26.50;65.00;;;;;;1870493;76;21492;-65
2022/06/28 12:40:09;;;;;;;2.67;1.90;;;26.50;65.60;;;;;;1870359;77;21038;-65
2022/06/28 12:42:38;;;;;;;2.42;1.82;;;26.60;65.40;;;;;;1870233;76;21038;-66
2022/06/28 12:45:09;;;;;;;5.28;2.75;;;26.60;65.50;;;;;;1870321;77;21026;-65
2022/06/28 12:47:40;;;;;;;5.25;2.60;;;26.70;65.50;;;;;;1870264;77;21061;-65
2022/06/28 12:50:17;;;;;;;4.35;2.10;;;26.70;65.40;;;;;;1870151;77;21081;-65
2022/06/28 12:52:45;;;;;;;9.70;3.22;;;26.70;65.40;;;;;;1869516;77;21111;-66
2022/06/28 12:55:15;;;;;;;4.87;2.12;;;26.70;65.30;;;;;;1870315;77;21107;-67
2022/06/28 12:57:45;;;;;;;3.90;2.30;;;26.80;65.10;;;;;;1870248;77;21034;-67
2022/06/28 13:00:15;;;;;;;7.08;2.15;;;26.80;65.30;;;;;;1870218;77;21174;-67
2022/06/28 13:02:45;;;;;;;3.37;2.20;;;26.70;64.70;;;;;;1870235;77;21042;-67
2022/06/28 13:05:14;;;;;;;2.60;1.70;;;26.70;65.00;;;;;;1870210;77;21034;-66
2022/06/28 13:07:45;;;;;;;4.53;2.05;;;26.60;65.10;;;;;;1870280;76;21103;-66
2022/06/28 13:10:15;;;;;;;2.70;2.00;;;26.50;65.20;;;;;;1870256;77;21014;-65
2022/06/28 13:12:45;;;;;;;4.05;2.15;;;26.40;65.10;;;;;;1870382;77;21034;-65
2022/06/28 13:15:15;;;;;;;8.28;2.45;;;26.30;65.30;;;;;;1870372;77;21025;-64
2022/06/28 13:17:44;;;;;;;7.45;2.25;;;26.30;65.90;;;;;;1870477;77;21038;-64
2022/06/28 13:20:14;;;;;;;4.15;2.15;;;26.20;66.00;;;;;;1870344;76;21065;-65
2022/06/28 13:22:44;;;;;;;4.10;1.60;;;26.20;66.10;;;;;;1870421;76;21030;-65
2022/06/28 13:25:13;;;;;;;5.92;1.70;;;26.20;65.50;;;;;;1870379;77;21034;-65
2022/06/28 13:27:44;;;;;;;4.35;2.15;;;26.20;65.80;;;;;;1870330;77;21042;-65